createdAt,value
2018-06-02T10:35:29.767Z,84.6
2018-06-02T10:36:29.956Z,85.1
2018-06-02T10:37:29.845Z,84.9
2018-06-02T10:38:29.731Z,84.4
2018-06-02T10:39:29.620Z,85
2018-06-02T10:40:29.514Z,84.5
2018-06-02T10:41:29.614Z,85
2018-06-02T10:42:30.490Z,84.8
2018-06-02T10:43:30.424Z,85.1
2018-06-02T10:44:30.402Z,84.3
2018-06-02T10:45:30.822Z,84.4
2018-06-02T10:46:30.724Z,84.4
2018-06-02T10:47:30.607Z,84.4
2018-06-02T10:48:30.490Z,83.3
2018-06-02T10:49:30.368Z,83.6
2018-06-02T10:50:30.260Z,81.6
2018-06-02T10:51:30.161Z,81.8
2018-06-02T10:52:30.038Z,83.6
2018-06-02T10:53:29.946Z,83.7
2018-06-02T10:54:30.052Z,83.4
2018-06-02T10:55:30.367Z,83.9
2018-06-02T10:56:30.270Z,83.3
2018-06-02T10:57:30.139Z,82.3
2018-06-02T10:58:30.020Z,82.5
2018-06-02T10:59:29.892Z,81.6
2018-06-02T11:00:29.774Z,80.1
2018-06-02T11:01:29.683Z,80
2018-06-02T11:02:29.563Z,80.2
2018-06-02T11:03:29.446Z,80.8
2018-06-02T11:04:29.396Z,84
2018-06-02T11:05:29.704Z,83.6
2018-06-02T11:06:29.607Z,80.2
2018-06-02T11:07:29.494Z,80.4
2018-06-02T11:08:29.366Z,80.4
2018-06-02T11:09:29.257Z,81.4
2018-06-02T11:10:29.140Z,80
2018-06-02T11:11:31.794Z,80.8
2018-06-02T11:12:31.680Z,78.9
2018-06-02T11:13:31.559Z,79
2018-06-02T11:14:31.457Z,79.2
2018-06-02T11:15:31.772Z,81
2018-06-02T11:16:31.658Z,80.3
2018-06-02T11:17:31.555Z,79.5
2018-06-02T11:18:31.655Z,79.8
2018-06-02T11:19:31.759Z,80
2018-06-02T11:20:31.874Z,80.8
2018-06-02T11:21:31.791Z,81.9
2018-06-02T11:22:32.682Z,81
2018-06-02T11:23:32.569Z,79.5
2018-06-02T11:24:32.709Z,78.7
2018-06-02T11:25:33.053Z,79.3
2018-06-02T11:26:32.934Z,78.9
2018-06-02T11:27:32.831Z,78.9
2018-06-02T11:28:32.723Z,78.5
2018-06-02T11:29:32.636Z,77.9
2018-06-02T11:30:32.515Z,77.8
2018-06-02T11:31:32.403Z,77.5
2018-06-02T11:32:32.282Z,77.6
2018-06-02T11:33:32.206Z,78.1
2018-06-02T11:34:36.748Z,78.5
2018-06-02T11:35:40.099Z,79
2018-06-02T11:36:39.979Z,79.5
2018-06-02T11:37:39.861Z,80.9
2018-06-02T11:38:39.768Z,80.3
2018-06-02T11:39:42.643Z,78.5
2018-06-02T11:40:42.583Z,79.5
2018-06-02T11:41:42.463Z,82
2018-06-02T11:42:42.338Z,81.4
2018-06-02T11:43:42.237Z,78.8
2018-06-02T11:44:42.144Z,79
2018-06-02T11:45:42.484Z,79.7
2018-06-02T11:46:42.416Z,79.1
2018-06-02T11:47:42.305Z,79.2
2018-06-02T11:48:42.411Z,78.9
2018-06-02T11:49:42.748Z,78.4
2018-06-02T11:50:43.119Z,76.5
2018-06-02T11:51:43.296Z,76.1
2018-06-02T11:52:43.193Z,75.9
2018-06-02T11:53:43.075Z,74.8
2018-06-02T11:54:43.025Z,75.1
2018-06-02T11:55:43.522Z,75.8
2018-06-02T11:56:43.501Z,76.2
2018-06-02T11:57:43.611Z,75.6
2018-06-02T11:58:43.510Z,79.1
2018-06-02T11:59:46.563Z,78.1
2018-06-02T12:00:47.709Z,77.2
2018-06-02T12:01:47.605Z,77.2
2018-06-02T12:02:47.541Z,77.1
2018-06-02T12:03:47.469Z,77.5
2018-06-02T12:04:47.386Z,77.6
2018-06-02T12:05:48.129Z,77.7
2018-06-02T12:06:48.099Z,77.4
2018-06-02T12:07:48.020Z,77.4
2018-06-02T12:08:47.951Z,77.5
2018-06-02T12:09:47.899Z,77.1
2018-06-02T12:10:47.792Z,76.8
2018-06-02T12:11:47.675Z,76.5
2018-06-02T12:12:47.562Z,76.7
2018-06-02T12:13:47.478Z,76.9
2018-06-02T12:14:47.419Z,76.5
2018-06-02T12:15:47.752Z,76.1
2018-06-02T12:16:47.649Z,76.2
2018-06-02T12:17:48.198Z,76.1
2018-06-02T12:18:48.142Z,76.9
2018-06-02T12:19:51.380Z,76.2
2018-06-02T12:20:51.533Z,77.4
2018-06-02T12:21:51.404Z,75.9
2018-06-02T12:22:51.289Z,75
2018-06-02T12:23:51.179Z,75.7
2018-06-02T12:24:51.084Z,75.6
2018-06-02T12:25:51.644Z,75.6
2018-06-02T12:26:51.520Z,76.2
2018-06-02T12:27:51.410Z,75.8
2018-06-02T12:28:51.310Z,76.6
2018-06-02T12:29:51.421Z,76
2018-06-02T12:30:52.377Z,75.1
2018-06-02T12:31:53.356Z,75.5
2018-06-02T12:32:54.274Z,76.5
2018-06-02T12:33:54.169Z,76.8
2018-06-02T12:34:54.069Z,76.3
2018-06-02T12:35:54.435Z,76.5
2018-06-02T12:36:54.324Z,76.7
2018-06-02T12:37:54.229Z,76.7
2018-06-02T12:38:54.590Z,77.2
2018-06-02T12:39:54.547Z,77.4
2018-06-02T12:40:54.460Z,78.8
2018-06-02T12:41:54.569Z,75.9
2018-06-02T12:42:54.478Z,75.6
2018-06-02T12:43:54.581Z,75.1
2018-06-02T12:44:54.477Z,75.7
2018-06-02T12:45:54.766Z,74.5
2018-06-02T12:46:54.666Z,75.9
2018-06-02T12:47:54.561Z,76.4
2018-06-02T12:48:54.459Z,74.8
2018-06-02T12:49:54.366Z,74
2018-06-02T12:50:54.242Z,73.8
2018-06-02T12:51:54.119Z,73.3
2018-06-02T12:52:54.003Z,75.4
2018-06-02T12:53:53.883Z,76
2018-06-02T12:54:53.767Z,75.7
2018-06-02T12:55:54.057Z,76.2
2018-06-02T12:56:53.954Z,76.1
2018-06-02T12:57:56.826Z,75.5
2018-06-02T12:58:56.706Z,74.5
2018-06-02T12:59:56.619Z,74
2018-06-02T13:00:56.589Z,73.3
2018-06-02T13:01:56.507Z,73.3
2018-06-02T13:02:56.408Z,73.7
2018-06-02T13:03:56.286Z,74.6
2018-06-02T13:04:57.166Z,75.5
2018-06-02T13:05:57.499Z,74.8
2018-06-02T13:06:57.412Z,74.9
2018-06-02T13:07:57.281Z,75.6
2018-06-02T13:08:57.160Z,76.1
2018-06-02T13:09:57.051Z,75.3
2018-06-02T13:10:57.168Z,75.3
2018-06-02T13:11:57.054Z,74.3
2018-06-02T13:12:56.972Z,75.2
2018-06-02T13:13:56.875Z,75.9
2018-06-02T13:14:56.764Z,75
2018-06-02T13:15:57.090Z,74.7
2018-06-02T13:16:56.983Z,74.7
2018-06-02T13:17:56.887Z,74.7
2018-06-02T13:18:56.822Z,74.4
2018-06-02T13:19:56.689Z,74.3
2018-06-02T13:20:57.239Z,74.6
2018-06-02T13:21:57.132Z,74.6
2018-06-02T13:22:57.034Z,74.5
2018-06-02T13:23:56.928Z,74.8
2018-06-02T13:24:56.805Z,75
2018-06-02T13:25:57.380Z,75.2
2018-06-02T13:26:57.273Z,75.2
2018-06-02T13:27:57.164Z,75
2018-06-02T13:28:57.075Z,75.1
2018-06-02T13:29:57.186Z,75.2
2018-06-02T13:30:57.061Z,75.9
2018-06-02T13:31:56.950Z,75.6
2018-06-02T13:32:57.129Z,75.6
2018-06-02T13:33:57.010Z,75.9
2018-06-02T13:34:56.907Z,76.5
2018-06-02T13:35:57.488Z,75.3
2018-06-02T13:36:57.389Z,74.5
2018-06-02T13:37:57.273Z,75
2018-06-02T13:38:57.200Z,75
2018-06-02T13:39:57.099Z,74.8
2018-06-02T13:40:56.960Z,74.8
2018-06-02T13:41:56.860Z,75
2018-06-02T13:42:56.829Z,75.5
2018-06-02T13:43:56.807Z,76.1
2018-06-02T13:44:57.341Z,75.9
2018-06-02T13:45:57.636Z,76.1
2018-06-02T13:46:57.597Z,77.1
2018-06-02T13:47:57.626Z,78.6
2018-06-02T13:48:57.705Z,80.4
2018-06-02T13:49:57.748Z,81.5
2018-06-02T13:50:58.076Z,82.8
2018-06-02T13:51:58.011Z,85.4
2018-06-02T13:52:57.900Z,84.8
2018-06-02T13:53:57.804Z,84
2018-06-02T13:54:57.937Z,82.9
2018-06-02T13:55:58.227Z,84.2
2018-06-02T13:56:58.103Z,83.7
2018-06-02T13:57:57.994Z,85
2018-06-02T13:58:57.877Z,85.4
2018-06-02T13:59:57.801Z,87.1
2018-06-02T14:00:57.677Z,87.2
2018-06-02T14:01:57.582Z,87.4
2018-06-02T14:02:57.479Z,87.7
2018-06-02T14:03:57.407Z,87.3
2018-06-02T14:04:57.295Z,88
2018-06-02T14:06:00.626Z,86.8
2018-06-02T14:07:00.517Z,86.3
2018-06-02T14:08:01.086Z,87.8
